sensor_id;sensor_type;location;lat;lon;timestamp;pressure;altitude;pressure_sealevel;temperature;humidity
31761;BME280;18335;51.486;7.562;2023-08-07T00:01:18;99678.97;;;14.74;100.00
31761;BME280;18335;51.486;7.562;2023-08-07T00:03:45;99683.31;;;14.55;100.00
31761;BME280;18335;51.486;7.562;2023-08-07T00:06:14;99678.81;;;14.41;100.00
31761;BME280;18335;51.486;7.562;2023-08-07T00:08:41;99677.41;;;14.58;100.00
31761;BME280;18335;51.486;7.562;2023-08-07T00:11:08;99685.84;;;14.50;100.00
31761;BME280;18335;51.486;7.562;2023-08-07T00:13:35;99678.34;;;14.85;100.00
31761;BME280;18335;51.486;7.562;2023-08-07T00:16:02;99679.59;;;14.69;100.00
31761;BME280;18335;51.486;7.562;2023-08-07T00:18:29;99680.00;;;14.73;100.00
31761;BME280;18335;51.486;7.562;2023-08-07T00:20:56;99675.81;;;14.83;100.00
31761;BME280;18335;51.486;7.562;2023-08-07T00:23:24;99678.34;;;14.72;100.00
31761;BME280;18335;51.486;7.562;2023-08-07T00:25:50;99675.03;;;14.96;100.00
31761;BME280;18335;51.486;7.562;2023-08-07T00:28:17;99671.63;;;14.94;100.00
31761;BME280;18335;51.486;7.562;2023-08-07T00:30:44;99662.13;;;15.03;100.00
31761;BME280;18335;51.486;7.562;2023-08-07T00:33:10;99667.41;;;14.98;100.00
31761;BME280;18335;51.486;7.562;2023-08-07T00:35:37;99670.13;;;14.91;100.00
31761;BME280;18335;51.486;7.562;2023-08-07T00:38:04;99655.56;;;14.91;100.00
31761;BME280;18335;51.486;7.562;2023-08-07T00:40:37;99674.59;;;14.92;100.00
31761;BME280;18335;51.486;7.562;2023-08-07T00:43:05;99667.84;;;14.95;100.00
31761;BME280;18335;51.486;7.562;2023-08-07T00:45:35;99682.88;;;14.52;100.00
31761;BME280;18335;51.486;7.562;2023-08-07T00:48:03;99673.22;;;14.62;100.00
31761;BME280;18335;51.486;7.562;2023-08-07T00:50:30;99680.31;;;15.04;100.00
31761;BME280;18335;51.486;7.562;2023-08-07T00:52:57;99682.13;;;14.71;100.00
31761;BME280;18335;51.486;7.562;2023-08-07T00:55:24;99677.50;;;14.78;100.00
31761;BME280;18335;51.486;7.562;2023-08-07T00:57:52;99668.16;;;14.66;100.00
31761;BME280;18335;51.486;7.562;2023-08-07T01:00:20;99673.81;;;14.58;100.00
31761;BME280;18335;51.486;7.562;2023-08-07T01:02:47;99692.59;;;15.02;100.00
31761;BME280;18335;51.486;7.562;2023-08-07T01:05:16;99684.66;;;14.79;100.00
31761;BME280;18335;51.486;7.562;2023-08-07T01:07:46;99688.97;;;15.01;100.00
31761;BME280;18335;51.486;7.562;2023-08-07T01:10:14;99679.69;;;15.15;100.00
31761;BME280;18335;51.486;7.562;2023-08-07T01:12:48;99684.78;;;15.18;100.00
31761;BME280;18335;51.486;7.562;2023-08-07T01:15:22;99689.84;;;15.15;100.00
31761;BME280;18335;51.486;7.562;2023-08-07T01:17:52;99700.66;;;15.16;100.00
31761;BME280;18335;51.486;7.562;2023-08-07T01:20:20;99692.81;;;15.13;100.00
31761;BME280;18335;51.486;7.562;2023-08-07T01:22:48;99696.50;;;14.79;100.00
31761;BME280;18335;51.486;7.562;2023-08-07T01:25:15;99696.59;;;15.12;100.00
31761;BME280;18335;51.486;7.562;2023-08-07T01:27:49;99693.53;;;14.74;100.00
31761;BME280;18335;51.486;7.562;2023-08-07T01:30:21;99691.50;;;14.89;100.00
31761;BME280;18335;51.486;7.562;2023-08-07T01:32:58;99704.53;;;14.74;100.00
31761;BME280;18335;51.486;7.562;2023-08-07T01:35:29;99700.41;;;15.18;100.00
31761;BME280;18335;51.486;7.562;2023-08-07T01:37:58;99702.84;;;14.80;100.00
31761;BME280;18335;51.486;7.562;2023-08-07T01:40:27;99712.53;;;14.69;100.00
31761;BME280;18335;51.486;7.562;2023-08-07T01:42:55;99711.38;;;14.98;100.00
31761;BME280;18335;51.486;7.562;2023-08-07T01:45:22;99712.97;;;14.66;100.00
31761;BME280;18335;51.486;7.562;2023-08-07T01:47:49;99705.66;;;14.93;100.00
31761;BME280;18335;51.486;7.562;2023-08-07T01:50:16;99714.84;;;14.66;100.00
31761;BME280;18335;51.486;7.562;2023-08-07T01:52:43;99711.34;;;14.91;100.00
31761;BME280;18335;51.486;7.562;2023-08-07T01:55:11;99711.22;;;14.59;100.00
31761;BME280;18335;51.486;7.562;2023-08-07T01:57:37;99715.88;;;14.65;100.00
31761;BME280;18335;51.486;7.562;2023-08-07T02:00:05;99717.22;;;14.82;100.00
31761;BME280;18335;51.486;7.562;2023-08-07T02:02:40;99721.81;;;14.68;100.00
31761;BME280;18335;51.486;7.562;2023-08-07T02:05:07;99717.47;;;14.93;100.00
31761;BME280;18335;51.486;7.562;2023-08-07T02:07:34;99717.63;;;14.79;100.00
31761;BME280;18335;51.486;7.562;2023-08-07T02:10:02;99723.00;;;14.53;100.00
31761;BME280;18335;51.486;7.562;2023-08-07T02:12:30;99734.09;;;14.72;100.00
31761;BME280;18335;51.486;7.562;2023-08-07T02:14:58;99733.13;;;14.52;100.00
31761;BME280;18335;51.486;7.562;2023-08-07T02:17:25;99746.47;;;14.55;100.00
31761;BME280;18335;51.486;7.562;2023-08-07T02:19:51;99728.81;;;14.71;100.00
31761;BME280;18335;51.486;7.562;2023-08-07T02:22:18;99736.59;;;14.67;100.00
31761;BME280;18335;51.486;7.562;2023-08-07T02:24:45;99730.63;;;14.51;100.00
31761;BME280;18335;51.486;7.562;2023-08-07T02:27:12;99740.91;;;14.42;100.00
31761;BME280;18335;51.486;7.562;2023-08-07T02:29:40;99737.72;;;14.79;100.00
31761;BME280;18335;51.486;7.562;2023-08-07T02:32:07;99741.72;;;14.77;100.00
31761;BME280;18335;51.486;7.562;2023-08-07T02:34:33;99736.97;;;14.58;100.00
31761;BME280;18335;51.486;7.562;2023-08-07T02:37:00;99726.88;;;14.65;100.00
31761;BME280;18335;51.486;7.562;2023-08-07T02:39:27;99743.88;;;14.88;100.00
31761;BME280;18335;51.486;7.562;2023-08-07T02:41:53;99733.41;;;14.64;100.00
31761;BME280;18335;51.486;7.562;2023-08-07T02:44:21;99724.88;;;14.46;100.00
31761;BME280;18335;51.486;7.562;2023-08-07T02:46:50;99736.97;;;14.58;100.00
31761;BME280;18335;51.486;7.562;2023-08-07T02:49:16;99738.34;;;14.75;100.00
31761;BME280;18335;51.486;7.562;2023-08-07T02:51:43;99734.50;;;14.76;100.00
31761;BME280;18335;51.486;7.562;2023-08-07T02:54:10;99734.88;;;14.60;100.00
31761;BME280;18335;51.486;7.562;2023-08-07T02:56:36;99731.88;;;14.48;100.00
31761;BME280;18335;51.486;7.562;2023-08-07T02:59:03;99733.28;;;14.85;100.00
31761;BME280;18335;51.486;7.562;2023-08-07T03:01:30;99726.38;;;14.48;100.00
31761;BME280;18335;51.486;7.562;2023-08-07T03:03:59;99733.81;;;14.26;100.00
31761;BME280;18335;51.486;7.562;2023-08-07T03:06:25;99730.72;;;14.77;100.00
31761;BME280;18335;51.486;7.562;2023-08-07T03:08:52;99737.94;;;14.78;100.00
31761;BME280;18335;51.486;7.562;2023-08-07T03:11:19;99740.81;;;14.70;100.00
31761;BME280;18335;51.486;7.562;2023-08-07T03:13:46;99741.66;;;14.64;100.00
31761;BME280;18335;51.486;7.562;2023-08-07T03:16:14;99733.72;;;14.88;100.00
31761;BME280;18335;51.486;7.562;2023-08-07T03:18:41;99736.84;;;14.79;100.00
31761;BME280;18335;51.486;7.562;2023-08-07T03:21:09;99726.88;;;14.65;100.00
31761;BME280;18335;51.486;7.562;2023-08-07T03:23:36;99740.25;;;14.81;100.00
31761;BME280;18335;51.486;7.562;2023-08-07T03:26:06;99724.72;;;15.08;100.00
31761;BME280;18335;51.486;7.562;2023-08-07T03:28:34;99737.00;;;14.64;100.00
31761;BME280;18335;51.486;7.562;2023-08-07T03:31:01;99733.53;;;14.90;100.00
31761;BME280;18335;51.486;7.562;2023-08-07T03:33:30;99739.19;;;14.75;100.00
31761;BME280;18335;51.486;7.562;2023-08-07T03:35:57;99733.91;;;14.80;100.00
31761;BME280;18335;51.486;7.562;2023-08-07T03:38:25;99745.09;;;14.72;100.00
31761;BME280;18335;51.486;7.562;2023-08-07T03:40:54;99738.75;;;14.78;100.00
31761;BME280;18335;51.486;7.562;2023-08-07T03:43:21;99752.63;;;14.57;100.00
31761;BME280;18335;51.486;7.562;2023-08-07T03:45:53;99753.03;;;14.61;100.00
31761;BME280;18335;51.486;7.562;2023-08-07T03:48:20;99746.84;;;14.86;100.00
31761;BME280;18335;51.486;7.562;2023-08-07T03:50:47;99755.09;;;14.93;100.00
31761;BME280;18335;51.486;7.562;2023-08-07T03:53:14;99745.56;;;14.89;100.00
31761;BME280;18335;51.486;7.562;2023-08-07T03:55:50;99751.63;;;14.71;100.00
31761;BME280;18335;51.486;7.562;2023-08-07T03:58:19;99751.50;;;14.92;100.00
31761;BME280;18335;51.486;7.562;2023-08-07T04:00:46;99752.78;;;14.96;100.00
31761;BME280;18335;51.486;7.562;2023-08-07T04:03:13;99752.06;;;14.75;100.00
31761;BME280;18335;51.486;7.562;2023-08-07T04:05:39;99751.81;;;14.63;100.00
31761;BME280;18335;51.486;7.562;2023-08-07T04:08:09;99759.53;;;14.94;100.00
31761;BME280;18335;51.486;7.562;2023-08-07T04:10:37;99759.97;;;14.98;100.00
31761;BME280;18335;51.486;7.562;2023-08-07T04:13:05;99759.94;;;14.91;100.00
31761;BME280;18335;51.486;7.562;2023-08-07T04:15:32;99755.97;;;14.53;100.00
31761;BME280;18335;51.486;7.562;2023-08-07T04:17:58;99754.81;;;14.40;100.00
31761;BME280;18335;51.486;7.562;2023-08-07T04:20:25;99764.47;;;14.64;100.00
31761;BME280;18335;51.486;7.562;2023-08-07T04:22:53;99761.75;;;14.71;100.00
31761;BME280;18335;51.486;7.562;2023-08-07T04:25:19;99762.09;;;14.55;100.00
31761;BME280;18335;51.486;7.562;2023-08-07T04:27:46;99762.34;;;14.60;100.00
31761;BME280;18335;51.486;7.562;2023-08-07T04:30:14;99768.28;;;14.70;100.00
31761;BME280;18335;51.486;7.562;2023-08-07T04:32:41;99773.28;;;14.53;100.00
31761;BME280;18335;51.486;7.562;2023-08-07T04:35:08;99775.94;;;14.74;100.00
31761;BME280;18335;51.486;7.562;2023-08-07T04:37:35;99776.59;;;15.37;100.00
31761;BME280;18335;51.486;7.562;2023-08-07T04:40:02;99769.91;;;14.58;100.00
31761;BME280;18335;51.486;7.562;2023-08-07T04:42:30;99776.53;;;14.63;100.00
31761;BME280;18335;51.486;7.562;2023-08-07T04:44:57;99778.84;;;15.14;100.00
31761;BME280;18335;51.486;7.562;2023-08-07T04:47:28;99775.50;;;14.71;100.00
31761;BME280;18335;51.486;7.562;2023-08-07T04:49:55;99785.66;;;14.77;100.00
31761;BME280;18335;51.486;7.562;2023-08-07T04:52:21;99784.63;;;14.78;100.00
31761;BME280;18335;51.486;7.562;2023-08-07T04:54:48;99781.88;;;14.78;100.00
31761;BME280;18335;51.486;7.562;2023-08-07T04:57:15;99783.38;;;14.46;100.00
31761;BME280;18335;51.486;7.562;2023-08-07T04:59:42;99781.25;;;14.42;100.00
31761;BME280;18335;51.486;7.562;2023-08-07T05:02:08;99780.31;;;14.62;100.00
31761;BME280;18335;51.486;7.562;2023-08-07T05:04:36;99777.41;;;14.43;100.00
31761;BME280;18335;51.486;7.562;2023-08-07T05:07:04;99786.38;;;14.58;100.00
31761;BME280;18335;51.486;7.562;2023-08-07T05:09:30;99789.03;;;14.72;100.00
31761;BME280;18335;51.486;7.562;2023-08-07T05:11:57;99782.06;;;14.76;100.00
31761;BME280;18335;51.486;7.562;2023-08-07T05:14:24;99785.13;;;14.54;100.00
31761;BME280;18335;51.486;7.562;2023-08-07T05:16:51;99789.00;;;14.66;100.00
31761;BME280;18335;51.486;7.562;2023-08-07T05:19:18;99784.31;;;14.60;100.00
31761;BME280;18335;51.486;7.562;2023-08-07T05:21:46;99785.81;;;14.34;100.00
31761;BME280;18335;51.486;7.562;2023-08-07T05:24:15;99792.28;;;14.55;100.00
31761;BME280;18335;51.486;7.562;2023-08-07T05:26:42;99797.38;;;14.58;100.00
31761;BME280;18335;51.486;7.562;2023-08-07T05:29:09;99794.13;;;14.82;100.00
31761;BME280;18335;51.486;7.562;2023-08-07T05:31:35;99791.13;;;14.70;100.00
31761;BME280;18335;51.486;7.562;2023-08-07T05:34:02;99799.31;;;14.64;100.00
31761;BME280;18335;51.486;7.562;2023-08-07T05:36:29;99793.75;;;14.51;100.00
31761;BME280;18335;51.486;7.562;2023-08-07T05:38:59;99800.03;;;14.79;100.00
31761;BME280;18335;51.486;7.562;2023-08-07T05:41:26;99791.41;;;14.48;100.00
31761;BME280;18335;51.486;7.562;2023-08-07T05:43:53;99790.75;;;14.80;100.00
31761;BME280;18335;51.486;7.562;2023-08-07T05:46:19;99800.63;;;14.33;100.00
31761;BME280;18335;51.486;7.562;2023-08-07T05:48:46;99802.94;;;14.71;100.00
31761;BME280;18335;51.486;7.562;2023-08-07T05:51:13;99794.03;;;14.62;100.00
31761;BME280;18335;51.486;7.562;2023-08-07T05:53:40;99805.88;;;14.63;100.00
31761;BME280;18335;51.486;7.562;2023-08-07T05:56:08;99806.41;;;14.52;100.00
31761;BME280;18335;51.486;7.562;2023-08-07T05:58:35;99807.22;;;14.46;100.00
31761;BME280;18335;51.486;7.562;2023-08-07T06:01:01;99810.69;;;14.95;100.00
31761;BME280;18335;51.486;7.562;2023-08-07T06:03:28;99804.56;;;14.31;100.00
31761;BME280;18335;51.486;7.562;2023-08-07T06:05:55;99805.16;;;14.26;100.00
31761;BME280;18335;51.486;7.562;2023-08-07T06:08:22;99809.97;;;14.46;100.00
31761;BME280;18335;51.486;7.562;2023-08-07T06:10:48;99807.63;;;14.43;100.00
31761;BME280;18335;51.486;7.562;2023-08-07T06:13:17;99808.94;;;14.25;100.00
31761;BME280;18335;51.486;7.562;2023-08-07T06:15:43;99812.59;;;14.05;100.00
31761;BME280;18335;51.486;7.562;2023-08-07T06:18:10;99810.97;;;14.66;100.00
31761;BME280;18335;51.486;7.562;2023-08-07T06:20:37;99817.25;;;14.60;100.00
31761;BME280;18335;51.486;7.562;2023-08-07T06:23:04;99819.34;;;14.92;100.00
31761;BME280;18335;51.486;7.562;2023-08-07T06:25:30;99824.25;;;14.34;100.00
31761;BME280;18335;51.486;7.562;2023-08-07T06:27:57;99827.66;;;14.36;100.00
31761;BME280;18335;51.486;7.562;2023-08-07T06:30:25;99828.06;;;14.12;100.00
31761;BME280;18335;51.486;7.562;2023-08-07T06:32:52;99832.81;;;14.53;100.00
31761;BME280;18335;51.486;7.562;2023-08-07T06:35:18;99839.88;;;15.03;100.00
31761;BME280;18335;51.486;7.562;2023-08-07T06:37:45;99831.38;;;14.57;100.00
31761;BME280;18335;51.486;7.562;2023-08-07T06:40:12;99835.81;;;14.30;100.00
31761;BME280;18335;51.486;7.562;2023-08-07T06:42:39;99834.19;;;14.63;100.00
31761;BME280;18335;51.486;7.562;2023-08-07T06:45:06;99840.63;;;14.83;100.00
31761;BME280;18335;51.486;7.562;2023-08-07T06:47:34;99842.50;;;14.49;100.00
31761;BME280;18335;51.486;7.562;2023-08-07T06:50:01;99854.63;;;14.95;100.00
31761;BME280;18335;51.486;7.562;2023-08-07T06:52:28;99853.28;;;14.78;100.00
31761;BME280;18335;51.486;7.562;2023-08-07T06:54:54;99848.59;;;14.78;100.00
31761;BME280;18335;51.486;7.562;2023-08-07T06:57:21;99850.09;;;14.74;100.00
31761;BME280;18335;51.486;7.562;2023-08-07T06:59:48;99855.13;;;15.05;100.00
31761;BME280;18335;51.486;7.562;2023-08-07T07:02:15;99862.91;;;14.67;100.00
31761;BME280;18335;51.486;7.562;2023-08-07T07:04:43;99866.78;;;15.14;100.00
31761;BME280;18335;51.486;7.562;2023-08-07T07:07:09;99867.47;;;14.88;100.00
31761;BME280;18335;51.486;7.562;2023-08-07T07:09:36;99870.09;;;15.03;100.00
31761;BME280;18335;51.486;7.562;2023-08-07T07:12:03;99871.47;;;15.26;100.00
31761;BME280;18335;51.486;7.562;2023-08-07T07:14:32;99869.06;;;15.04;100.00
31761;BME280;18335;51.486;7.562;2023-08-07T07:16:59;99875.50;;;15.24;100.00
31761;BME280;18335;51.486;7.562;2023-08-07T07:19:26;99878.31;;;14.96;100.00
31761;BME280;18335;51.486;7.562;2023-08-07T07:21:54;99891.16;;;15.30;100.00
31761;BME280;18335;51.486;7.562;2023-08-07T07:24:21;99895.69;;;15.44;100.00
31761;BME280;18335;51.486;7.562;2023-08-07T07:26:48;99892.84;;;15.24;100.00
31761;BME280;18335;51.486;7.562;2023-08-07T07:29:16;99891.03;;;15.04;100.00
31761;BME280;18335;51.486;7.562;2023-08-07T07:31:43;99893.56;;;15.46;100.00
31761;BME280;18335;51.486;7.562;2023-08-07T07:34:09;99897.19;;;15.46;100.00
31761;BME280;18335;51.486;7.562;2023-08-07T07:36:36;99903.47;;;15.34;100.00
31761;BME280;18335;51.486;7.562;2023-08-07T07:39:04;99902.53;;;15.20;100.00
31761;BME280;18335;51.486;7.562;2023-08-07T07:41:31;99905.94;;;15.22;100.00
31761;BME280;18335;51.486;7.562;2023-08-07T07:43:58;99914.91;;;15.37;100.00
31761;BME280;18335;51.486;7.562;2023-08-07T07:46:26;99908.44;;;15.52;100.00
31761;BME280;18335;51.486;7.562;2023-08-07T07:48:52;99912.31;;;15.29;100.00
31761;BME280;18335;51.486;7.562;2023-08-07T07:51:19;99903.34;;;14.80;100.00
31761;BME280;18335;51.486;7.562;2023-08-07T07:53:46;99916.75;;;15.30;100.00
31761;BME280;18335;51.486;7.562;2023-08-07T07:56:14;99914.34;;;15.14;100.00
31761;BME280;18335;51.486;7.562;2023-08-07T07:58:41;99922.44;;;15.22;100.00
31761;BME280;18335;51.486;7.562;2023-08-07T08:01:09;99924.56;;;15.27;100.00
31761;BME280;18335;51.486;7.562;2023-08-07T08:03:36;99921.72;;;15.07;100.00
31761;BME280;18335;51.486;7.562;2023-08-07T08:06:03;99931.91;;;15.13;100.00
31761;BME280;18335;51.486;7.562;2023-08-07T08:08:30;99926.00;;;15.57;100.00
31761;BME280;18335;51.486;7.562;2023-08-07T08:10:57;99937.84;;;15.17;100.00
31761;BME280;18335;51.486;7.562;2023-08-07T08:13:25;99931.94;;;15.61;100.00
31761;BME280;18335;51.486;7.562;2023-08-07T08:15:52;99946.88;;;15.99;100.00
31761;BME280;18335;51.486;7.562;2023-08-07T08:18:19;99942.88;;;15.47;100.00
31761;BME280;18335;51.486;7.562;2023-08-07T08:20:46;99949.97;;;15.70;100.00
31761;BME280;18335;51.486;7.562;2023-08-07T08:23:12;99953.28;;;16.06;100.00
31761;BME280;18335;51.486;7.562;2023-08-07T08:25:39;99953.63;;;15.90;100.00
31761;BME280;18335;51.486;7.562;2023-08-07T08:28:06;99948.94;;;15.36;100.00
31761;BME280;18335;51.486;7.562;2023-08-07T08:30:34;99956.56;;;15.82;100.00
31761;BME280;18335;51.486;7.562;2023-08-07T08:33:00;99956.88;;;15.53;100.00
31761;BME280;18335;51.486;7.562;2023-08-07T08:35:27;99961.41;;;15.73;100.00
31761;BME280;18335;51.486;7.562;2023-08-07T08:37:54;99960.59;;;15.79;100.00
31761;BME280;18335;51.486;7.562;2023-08-07T08:40:21;99973.53;;;15.92;100.00
31761;BME280;18335;51.486;7.562;2023-08-07T08:42:49;99979.06;;;15.98;100.00
31761;BME280;18335;51.486;7.562;2023-08-07T08:45:16;99988.38;;;16.04;100.00
31761;BME280;18335;51.486;7.562;2023-08-07T08:47:44;99983.34;;;16.14;100.00
31761;BME280;18335;51.486;7.562;2023-08-07T08:50:13;99990.59;;;16.35;100.00
31761;BME280;18335;51.486;7.562;2023-08-07T08:52:42;99974.09;;;16.48;100.00
31761;BME280;18335;51.486;7.562;2023-08-07T08:55:10;99996.91;;;16.22;100.00
31761;BME280;18335;51.486;7.562;2023-08-07T08:57:38;100001.50;;;16.02;100.00
31761;BME280;18335;51.486;7.562;2023-08-07T09:00:06;100002.03;;;16.38;100.00
31761;BME280;18335;51.486;7.562;2023-08-07T09:02:45;100007.84;;;16.56;100.00
31761;BME280;18335;51.486;7.562;2023-08-07T09:05:14;100007.97;;;16.35;100.00
31761;BME280;18335;51.486;7.562;2023-08-07T09:07:41;99998.72;;;16.89;100.00
31761;BME280;18335;51.486;7.562;2023-08-07T09:10:09;100012.28;;;17.03;100.00
31761;BME280;18335;51.486;7.562;2023-08-07T09:12:39;100003.38;;;16.55;100.00
31761;BME280;18335;51.486;7.562;2023-08-07T09:15:08;100018.00;;;16.82;100.00
31761;BME280;18335;51.486;7.562;2023-08-07T09:17:40;100024.91;;;16.32;100.00
31761;BME280;18335;51.486;7.562;2023-08-07T09:20:09;100019.44;;;16.45;100.00
31761;BME280;18335;51.486;7.562;2023-08-07T09:22:38;100027.03;;;16.43;100.00
31761;BME280;18335;51.486;7.562;2023-08-07T09:25:06;100020.28;;;16.39;100.00
31761;BME280;18335;51.486;7.562;2023-08-07T09:27:36;100022.69;;;17.01;100.00
31761;BME280;18335;51.486;7.562;2023-08-07T09:30:05;100025.88;;;16.98;100.00
31761;BME280;18335;51.486;7.562;2023-08-07T09:32:33;100027.78;;;17.04;100.00
31761;BME280;18335;51.486;7.562;2023-08-07T09:35:02;100026.94;;;17.17;100.00
31761;BME280;18335;51.486;7.562;2023-08-07T09:37:31;100014.13;;;17.68;100.00
31761;BME280;18335;51.486;7.562;2023-08-07T09:40:00;100029.22;;;17.53;100.00
31761;BME280;18335;51.486;7.562;2023-08-07T09:42:30;100030.03;;;17.53;100.00
31761;BME280;18335;51.486;7.562;2023-08-07T09:44:58;100026.75;;;18.02;100.00
31761;BME280;18335;51.486;7.562;2023-08-07T09:47:24;100033.47;;;18.13;100.00
31761;BME280;18335;51.486;7.562;2023-08-07T09:49:54;100025.09;;;17.88;100.00
31761;BME280;18335;51.486;7.562;2023-08-07T09:52:21;100031.47;;;18.33;100.00
31761;BME280;18335;51.486;7.562;2023-08-07T09:54:49;100030.59;;;18.39;100.00
31761;BME280;18335;51.486;7.562;2023-08-07T09:57:16;100044.34;;;18.08;100.00
31761;BME280;18335;51.486;7.562;2023-08-07T09:59:49;100035.47;;;18.37;100.00
31761;BME280;18335;51.486;7.562;2023-08-07T10:02:16;100037.13;;;18.83;100.00
31761;BME280;18335;51.486;7.562;2023-08-07T10:04:43;100038.50;;;17.85;100.00
31761;BME280;18335;51.486;7.562;2023-08-07T10:07:10;100041.94;;;17.47;100.00
31761;BME280;18335;51.486;7.562;2023-08-07T10:09:39;100044.41;;;17.95;100.00
31761;BME280;18335;51.486;7.562;2023-08-07T10:12:08;100043.75;;;18.50;100.00
31761;BME280;18335;51.486;7.562;2023-08-07T10:14:35;100039.56;;;18.28;100.00
31761;BME280;18335;51.486;7.562;2023-08-07T10:17:02;100044.13;;;18.85;100.00
31761;BME280;18335;51.486;7.562;2023-08-07T10:19:29;100033.31;;;19.33;100.00
31761;BME280;18335;51.486;7.562;2023-08-07T10:21:57;100027.06;;;19.44;100.00
31761;BME280;18335;51.486;7.562;2023-08-07T10:24:25;100028.91;;;19.01;100.00
31761;BME280;18335;51.486;7.562;2023-08-07T10:26:52;100032.69;;;19.31;100.00
31761;BME280;18335;51.486;7.562;2023-08-07T10:29:22;100036.25;;;18.89;100.00
31761;BME280;18335;51.486;7.562;2023-08-07T10:31:51;100049.69;;;17.96;100.00
31761;BME280;18335;51.486;7.562;2023-08-07T10:34:19;100050.91;;;18.13;100.00
31761;BME280;18335;51.486;7.562;2023-08-07T10:36:46;100087.78;;;17.48;100.00
31761;BME280;18335;51.486;7.562;2023-08-07T10:39:31;100067.63;;;17.54;100.00
31761;BME280;18335;51.486;7.562;2023-08-07T10:42:17;100077.56;;;17.82;100.00
31761;BME280;18335;51.486;7.562;2023-08-07T10:44:49;100076.28;;;17.78;100.00
31761;BME280;18335;51.486;7.562;2023-08-07T10:47:32;100089.47;;;17.30;100.00
31761;BME280;18335;51.486;7.562;2023-08-07T10:49:59;100075.69;;;18.33;100.00
31761;BME280;18335;51.486;7.562;2023-08-07T10:52:27;100077.13;;;18.42;100.00
31761;BME280;18335;51.486;7.562;2023-08-07T10:54:54;100075.31;;;18.10;100.00
31761;BME280;18335;51.486;7.562;2023-08-07T10:57:21;100083.16;;;18.19;100.00
31761;BME280;18335;51.486;7.562;2023-08-07T11:00:01;100070.50;;;17.92;100.00
31761;BME280;18335;51.486;7.562;2023-08-07T11:02:31;100086.75;;;18.27;100.00
31761;BME280;18335;51.486;7.562;2023-08-07T11:04:59;100072.03;;;18.39;100.00
31761;BME280;18335;51.486;7.562;2023-08-07T11:07:27;100077.44;;;18.97;100.00
31761;BME280;18335;51.486;7.562;2023-08-07T11:09:54;100072.91;;;18.77;100.00
31761;BME280;18335;51.486;7.562;2023-08-07T11:12:24;100065.28;;;19.54;100.00
31761;BME280;18335;51.486;7.562;2023-08-07T11:14:50;100060.97;;;18.84;100.00
31761;BME280;18335;51.486;7.562;2023-08-07T11:17:19;100063.78;;;18.70;100.00
31761;BME280;18335;51.486;7.562;2023-08-07T11:19:46;100073.97;;;19.08;100.00
31761;BME280;18335;51.486;7.562;2023-08-07T11:22:15;100071.59;;;19.36;100.00
31761;BME280;18335;51.486;7.562;2023-08-07T11:24:42;100068.22;;;19.34;100.00
31761;BME280;18335;51.486;7.562;2023-08-07T11:27:08;100065.59;;;18.90;100.00
31761;BME280;18335;51.486;7.562;2023-08-07T11:29:35;100074.84;;;18.70;100.00
31761;BME280;18335;51.486;7.562;2023-08-07T11:32:02;100074.16;;;18.82;100.00
31761;BME280;18335;51.486;7.562;2023-08-07T11:34:31;100060.50;;;19.43;100.00
31761;BME280;18335;51.486;7.562;2023-08-07T11:36:57;100057.44;;;19.26;100.00
31761;BME280;18335;51.486;7.562;2023-08-07T11:39:25;100062.00;;;20.18;100.00
31761;BME280;18335;51.486;7.562;2023-08-07T11:41:52;100067.81;;;19.55;100.00
31761;BME280;18335;51.486;7.562;2023-08-07T11:44:19;100054.56;;;19.39;100.00
31761;BME280;18335;51.486;7.562;2023-08-07T11:46:45;100057.31;;;19.64;100.00
31761;BME280;18335;51.486;7.562;2023-08-07T11:49:12;100054.13;;;19.60;100.00
31761;BME280;18335;51.486;7.562;2023-08-07T11:51:40;100056.78;;;19.73;100.00
31761;BME280;18335;51.486;7.562;2023-08-07T11:54:07;100053.00;;;20.40;100.00
31761;BME280;18335;51.486;7.562;2023-08-07T11:56:34;100051.06;;;19.68;100.00
31761;BME280;18335;51.486;7.562;2023-08-07T11:59:02;100049.16;;;19.87;100.00
31761;BME280;18335;51.486;7.562;2023-08-07T12:01:29;100067.16;;;19.35;100.00
31761;BME280;18335;51.486;7.562;2023-08-07T12:03:58;100078.56;;;19.45;100.00
31761;BME280;18335;51.486;7.562;2023-08-07T12:06:35;100068.78;;;20.04;100.00
31761;BME280;18335;51.486;7.562;2023-08-07T12:09:06;100070.47;;;20.23;100.00
31761;BME280;18335;51.486;7.562;2023-08-07T12:11:37;100072.25;;;20.17;100.00
31761;BME280;18335;51.486;7.562;2023-08-07T12:14:04;100076.22;;;20.28;100.00
31761;BME280;18335;51.486;7.562;2023-08-07T12:16:33;100074.66;;;20.32;100.00
31761;BME280;18335;51.486;7.562;2023-08-07T12:19:00;100066.44;;;20.55;100.00
31761;BME280;18335;51.486;7.562;2023-08-07T12:21:27;100079.63;;;20.41;100.00
31761;BME280;18335;51.486;7.562;2023-08-07T12:23:55;100082.19;;;21.03;100.00
31761;BME280;18335;51.486;7.562;2023-08-07T12:26:24;100080.50;;;20.42;100.00
31761;BME280;18335;51.486;7.562;2023-08-07T12:28:52;100083.75;;;20.69;100.00
31761;BME280;18335;51.486;7.562;2023-08-07T12:31:18;100067.41;;;20.13;100.00
31761;BME280;18335;51.486;7.562;2023-08-07T12:33:45;100083.41;;;20.11;100.00
31761;BME280;18335;51.486;7.562;2023-08-07T12:36:12;100092.47;;;20.54;100.00
31761;BME280;18335;51.486;7.562;2023-08-07T12:38:40;100089.94;;;20.82;100.00
31761;BME280;18335;51.486;7.562;2023-08-07T12:41:07;100094.91;;;20.62;100.00
31761;BME280;18335;51.486;7.562;2023-08-07T12:43:35;100089.38;;;20.62;100.00
31761;BME280;18335;51.486;7.562;2023-08-07T12:46:01;100098.72;;;20.31;100.00
31761;BME280;18335;51.486;7.562;2023-08-07T12:48:28;100096.03;;;20.07;100.00
31761;BME280;18335;51.486;7.562;2023-08-07T12:50:55;100088.72;;;20.78;100.00